createdAt,value
2023-05-12T00:00:01.047Z,10.00
2023-05-12T00:02:27.705Z,10.70
2023-05-12T00:04:59.804Z,9.07
2023-05-12T00:07:26.574Z,7.47
2023-05-12T00:09:53.120Z,8.30
2023-05-12T00:12:19.827Z,7.55
2023-05-12T00:14:48.544Z,7.10
2023-05-12T00:17:17.227Z,5.63
2023-05-12T00:19:46.719Z,5.75
2023-05-12T00:22:15.632Z,6.03
2023-05-12T00:24:44.750Z,5.53
2023-05-12T00:27:14.500Z,5.38
2023-05-12T00:29:41.042Z,5.63
2023-05-12T00:32:08.139Z,5.47
2023-05-12T00:34:34.702Z,4.97
2023-05-12T00:37:04.875Z,5.25
2023-05-12T00:39:38.658Z,6.22
2023-05-12T00:42:09.031Z,5.80
2023-05-12T00:44:36.506Z,6.85
2023-05-12T00:47:05.205Z,6.78
2023-05-12T00:49:36.580Z,6.22
2023-05-12T00:52:06.448Z,6.60
2023-05-12T00:54:36.125Z,6.68
2023-05-12T00:57:06.027Z,6.47
2023-05-12T00:59:32.638Z,6.35
2023-05-12T01:01:59.376Z,5.93
2023-05-12T01:04:26.367Z,6.30
2023-05-12T01:07:04.986Z,7.55
2023-05-12T01:09:31.594Z,5.95
2023-05-12T01:12:07.374Z,5.32
2023-05-12T01:14:40.091Z,5.07
2023-05-12T01:17:12.717Z,5.90
2023-05-12T01:19:45.899Z,5.20
2023-05-12T01:22:12.846Z,5.63
2023-05-12T01:24:56.062Z,5.25
2023-05-12T01:27:27.208Z,5.70
2023-05-12T01:29:59.356Z,5.20
2023-05-12T01:32:30.328Z,5.45
2023-05-12T01:34:58.229Z,5.68
2023-05-12T01:37:28.848Z,5.57
2023-05-12T01:39:56.464Z,5.35
2023-05-12T01:42:23.011Z,5.65
2023-05-12T01:44:50.264Z,5.75
2023-05-12T01:47:28.463Z,5.78
2023-05-12T01:50:09.637Z,6.13
2023-05-12T01:52:38.004Z,5.60
2023-05-12T01:55:11.565Z,4.97
2023-05-12T01:57:45.564Z,5.00
2023-05-12T02:00:12.807Z,5.07
2023-05-12T02:02:43.199Z,4.63
2023-05-12T02:05:12.419Z,4.45
2023-05-12T02:07:40.947Z,3.95
2023-05-12T02:10:09.374Z,4.38
2023-05-12T02:12:36.602Z,4.07
2023-05-12T02:15:08.435Z,3.72
2023-05-12T02:17:38.996Z,3.95
2023-05-12T02:20:17.902Z,4.10
2023-05-12T02:22:53.154Z,4.18
2023-05-12T02:25:22.538Z,4.03
2023-05-12T02:27:51.590Z,4.05
2023-05-12T02:30:18.545Z,2.88
2023-05-12T02:32:46.156Z,3.13
2023-05-12T02:35:16.173Z,2.05
2023-05-12T02:37:44.082Z,2.47
2023-05-12T02:40:13.803Z,2.30
2023-05-12T02:42:40.414Z,2.00
2023-05-12T02:45:07.671Z,1.67
2023-05-12T02:47:42.437Z,1.40
2023-05-12T02:50:12.126Z,1.50
2023-05-12T02:52:39.056Z,1.30
2023-05-12T02:55:11.081Z,1.65
2023-05-12T02:57:37.713Z,1.38
2023-05-12T03:00:07.710Z,1.13
2023-05-12T03:02:43.120Z,0.90
2023-05-12T03:05:09.880Z,0.60
2023-05-12T03:07:37.029Z,0.52
2023-05-12T03:10:04.089Z,0.65
2023-05-12T03:12:31.780Z,0.70
2023-05-12T03:15:00.669Z,0.60
2023-05-12T03:17:27.394Z,0.70
2023-05-12T03:19:59.063Z,0.90
2023-05-12T03:22:25.940Z,1.13
2023-05-12T03:24:53.018Z,1.00
2023-05-12T03:27:20.773Z,1.25
2023-05-12T03:29:47.367Z,1.52
2023-05-12T03:32:17.050Z,1.42
2023-05-12T03:34:45.935Z,1.30
2023-05-12T03:37:17.541Z,1.45
2023-05-12T03:39:46.840Z,1.65
2023-05-12T03:42:14.327Z,1.40
2023-05-12T03:44:42.844Z,1.90
2023-05-12T03:47:10.151Z,1.60
2023-05-12T03:49:37.123Z,1.75
2023-05-12T03:52:05.330Z,2.63
2023-05-12T03:54:39.494Z,1.65
2023-05-12T03:57:11.909Z,2.00
2023-05-12T03:59:38.473Z,2.22
2023-05-12T04:02:14.284Z,2.25
2023-05-12T04:04:40.909Z,1.90
2023-05-12T04:07:07.516Z,2.03
2023-05-12T04:09:36.385Z,2.38
2023-05-12T04:12:04.432Z,2.55
2023-05-12T04:14:41.839Z,2.22
2023-05-12T04:17:16.857Z,2.58
2023-05-12T04:19:43.493Z,2.30
2023-05-12T04:22:10.140Z,2.63
2023-05-12T04:24:39.756Z,2.47
2023-05-12T04:27:07.218Z,2.92
2023-05-12T04:29:35.041Z,3.22
2023-05-12T04:32:03.945Z,2.90
2023-05-12T04:34:31.004Z,2.63
2023-05-12T04:36:58.062Z,2.90
2023-05-12T04:39:24.660Z,2.75
2023-05-12T04:41:51.345Z,3.25
2023-05-12T04:44:18.647Z,3.35
2023-05-12T04:46:46.805Z,3.28
2023-05-12T04:49:13.487Z,3.33
2023-05-12T04:51:44.306Z,3.40
2023-05-12T04:54:14.358Z,3.03
2023-05-12T04:56:41.271Z,3.75
2023-05-12T04:59:11.432Z,3.45
2023-05-12T05:01:41.337Z,3.85
2023-05-12T05:04:08.140Z,3.42
2023-05-12T05:06:35.456Z,4.10
2023-05-12T05:09:02.386Z,5.25
2023-05-12T05:11:29.807Z,4.72
2023-05-12T05:13:56.446Z,3.95
2023-05-12T05:16:24.132Z,3.60
2023-05-12T05:18:51.617Z,3.08
2023-05-12T05:21:18.320Z,3.83
2023-05-12T05:23:45.103Z,4.32
2023-05-12T05:26:12.026Z,4.40
2023-05-12T05:28:40.120Z,4.22
2023-05-12T05:31:08.048Z,4.05
2023-05-12T05:33:35.186Z,3.80
2023-05-12T05:36:03.089Z,3.97
2023-05-12T05:38:29.811Z,4.05
2023-05-12T05:40:56.640Z,3.55
2023-05-12T05:43:24.685Z,4.40
2023-05-12T05:45:51.949Z,3.92
2023-05-12T05:48:20.714Z,3.78
2023-05-12T05:50:47.690Z,3.63
2023-05-12T05:53:14.626Z,3.45
2023-05-12T05:55:41.421Z,4.63
2023-05-12T05:58:08.455Z,3.40
2023-05-12T06:00:35.120Z,3.47
2023-05-12T06:03:02.004Z,3.33
2023-05-12T06:05:28.949Z,3.75
2023-05-12T06:07:55.702Z,3.28
2023-05-12T06:10:22.673Z,3.10
2023-05-12T06:12:50.293Z,3.22
2023-05-12T06:15:17.453Z,3.63
2023-05-12T06:17:44.261Z,3.10
2023-05-12T06:20:13.161Z,3.95
2023-05-12T06:22:42.177Z,3.25
2023-05-12T06:25:10.158Z,3.40
2023-05-12T06:27:38.304Z,3.50
2023-05-12T06:30:06.416Z,3.60
2023-05-12T06:32:33.379Z,3.30
2023-05-12T06:35:00.012Z,3.28
2023-05-12T06:37:27.393Z,3.72
2023-05-12T06:39:54.025Z,3.10
2023-05-12T06:42:20.608Z,2.65
2023-05-12T06:44:51.752Z,2.25
2023-05-12T06:47:20.531Z,2.50
2023-05-12T06:49:49.921Z,2.35
2023-05-12T06:52:17.015Z,2.22
2023-05-12T06:54:43.753Z,2.33
2023-05-12T06:57:10.706Z,2.10
2023-05-12T06:59:37.297Z,2.15
2023-05-12T07:02:03.988Z,1.90
2023-05-12T07:04:30.553Z,2.75
2023-05-12T07:06:57.110Z,2.42
2023-05-12T07:09:23.804Z,2.30
2023-05-12T07:11:50.937Z,2.05
2023-05-12T07:14:17.612Z,2.22
2023-05-12T07:16:44.344Z,2.22
2023-05-12T07:19:10.934Z,2.50
2023-05-12T07:21:37.851Z,2.20
2023-05-12T07:24:06.129Z,2.28
2023-05-12T07:26:33.132Z,2.90
2023-05-12T07:29:00.668Z,2.58
2023-05-12T07:31:27.357Z,2.72
2023-05-12T07:33:54.614Z,2.55
2023-05-12T07:36:22.040Z,3.03
2023-05-12T07:38:48.864Z,2.33
2023-05-12T07:41:15.453Z,2.45
2023-05-12T07:43:42.017Z,2.40
2023-05-12T07:46:08.591Z,2.35
2023-05-12T07:48:39.462Z,2.15
2023-05-12T07:51:07.258Z,2.33
2023-05-12T07:53:34.004Z,2.67
2023-05-12T07:56:00.595Z,2.17
2023-05-12T07:58:27.252Z,2.50
2023-05-12T08:00:54.513Z,2.30
2023-05-12T08:03:21.316Z,2.63
2023-05-12T08:05:48.008Z,2.75
2023-05-12T08:08:16.547Z,2.50
2023-05-12T08:10:44.187Z,2.17
2023-05-12T08:13:11.026Z,2.42
2023-05-12T08:15:37.609Z,2.38
2023-05-12T08:18:04.316Z,2.05
2023-05-12T08:20:32.020Z,2.20
2023-05-12T08:22:58.655Z,2.20
2023-05-12T08:25:27.653Z,2.83
2023-05-12T08:27:54.293Z,2.13
2023-05-12T08:30:20.983Z,2.17
2023-05-12T08:32:47.621Z,2.60
2023-05-12T08:35:14.257Z,2.33
2023-05-12T08:37:41.117Z,2.10
2023-05-12T08:40:16.461Z,2.05
2023-05-12T08:42:44.607Z,2.10
2023-05-12T08:45:12.226Z,2.13
2023-05-12T08:47:39.586Z,2.50
2023-05-12T08:50:07.085Z,1.92
2023-05-12T08:52:35.542Z,1.90
2023-05-12T08:55:03.723Z,2.13
2023-05-12T08:57:31.557Z,1.98
2023-05-12T08:59:59.874Z,2.05
2023-05-12T09:02:37.671Z,2.13
2023-05-12T09:05:08.781Z,2.17
2023-05-12T09:07:39.558Z,1.67
2023-05-12T09:10:19.666Z,1.90
2023-05-12T09:12:57.586Z,2.03
2023-05-12T09:15:30.136Z,1.70
2023-05-12T09:17:56.734Z,2.17
2023-05-12T09:20:31.528Z,1.70
2023-05-12T09:22:59.972Z,1.90
2023-05-12T09:25:26.571Z,1.67
2023-05-12T09:27:58.752Z,1.70
2023-05-12T09:30:30.660Z,1.55
2023-05-12T09:33:08.301Z,1.55
2023-05-12T09:35:42.939Z,1.42
2023-05-12T09:38:11.955Z,1.42
2023-05-12T09:40:38.754Z,1.80
2023-05-12T09:43:08.703Z,1.50
2023-05-12T09:45:36.606Z,1.40
2023-05-12T09:48:13.852Z,1.25
2023-05-12T09:50:48.148Z,1.38
2023-05-12T09:53:17.124Z,1.38
2023-05-12T09:55:44.502Z,1.48
2023-05-12T09:58:11.678Z,1.55
2023-05-12T10:01:06.033Z,1.17
2023-05-12T10:03:30.151Z,1.63
2023-05-12T10:06:00.010Z,1.75
2023-05-12T10:08:33.785Z,1.45
2023-05-12T10:11:02.250Z,1.20
2023-05-12T10:13:31.416Z,1.58
2023-05-12T10:15:59.830Z,1.00
2023-05-12T10:18:27.020Z,1.48
2023-05-12T10:20:54.066Z,1.40
2023-05-12T10:23:21.697Z,1.30
2023-05-12T10:25:49.249Z,1.45
2023-05-12T10:28:16.651Z,1.45
2023-05-12T10:30:44.633Z,1.52
2023-05-12T10:33:11.490Z,1.63
2023-05-12T10:35:39.891Z,1.52
2023-05-12T10:38:22.163Z,1.85
2023-05-12T10:40:58.672Z,1.30
2023-05-12T10:43:27.349Z,1.30
2023-05-12T10:46:10.415Z,1.73
2023-05-12T10:48:49.047Z,1.60
2023-05-12T10:51:42.199Z,1.85
2023-05-12T10:54:11.649Z,1.92
2023-05-12T10:56:38.660Z,1.40
2023-05-12T10:59:12.029Z,1.60
2023-05-12T11:01:40.632Z,2.33
2023-05-12T11:04:15.788Z,1.35
2023-05-12T11:06:44.932Z,1.77
2023-05-12T11:09:13.391Z,1.50
2023-05-12T11:11:40.560Z,1.95
2023-05-12T11:14:09.406Z,1.88
2023-05-12T11:16:43.200Z,2.10
2023-05-12T11:19:10.297Z,1.88
2023-05-12T11:21:37.198Z,1.88
2023-05-12T11:24:03.937Z,1.80
2023-05-12T11:26:30.787Z,2.00
2023-05-12T11:28:58.333Z,2.08
2023-05-12T11:31:25.206Z,1.65
2023-05-12T11:34:12.105Z,1.88
2023-05-12T11:36:43.841Z,1.90
2023-05-12T11:39:17.258Z,2.33
2023-05-12T11:41:44.833Z,2.20
2023-05-12T11:44:19.179Z,1.88
2023-05-12T11:47:03.963Z,1.92
2023-05-12T11:49:31.785Z,1.83
2023-05-12T11:52:00.828Z,1.60
2023-05-12T11:54:30.805Z,2.00
2023-05-12T11:56:58.081Z,1.70
2023-05-12T11:59:32.769Z,1.50
2023-05-12T12:02:02.429Z,1.83
2023-05-12T12:04:34.746Z,1.95
2023-05-12T12:07:01.941Z,1.70
2023-05-12T12:09:42.873Z,1.70
2023-05-12T12:12:10.985Z,1.77
2023-05-12T12:14:38.263Z,2.15
2023-05-12T12:17:05.499Z,2.35
2023-05-12T12:19:32.091Z,2.35
2023-05-12T12:21:59.005Z,2.40
2023-05-12T12:24:25.700Z,2.50
2023-05-12T12:26:52.308Z,2.38
2023-05-12T12:29:19.088Z,3.22
2023-05-12T12:31:45.705Z,2.28
2023-05-12T12:34:12.398Z,2.45
2023-05-12T12:36:38.974Z,2.53
2023-05-12T12:39:05.563Z,2.50
2023-05-12T12:41:32.437Z,2.33
2023-05-12T12:43:59.322Z,2.42
2023-05-12T12:46:26.037Z,2.30
2023-05-12T12:48:52.660Z,2.55
2023-05-12T12:51:19.309Z,2.63
2023-05-12T12:53:46.036Z,2.92
2023-05-12T12:56:12.716Z,2.40
2023-05-12T12:58:39.380Z,1.98
2023-05-12T13:01:06.431Z,2.15
2023-05-12T13:03:33.073Z,2.00
2023-05-12T13:05:59.865Z,2.35
2023-05-12T13:08:26.459Z,2.17
2023-05-12T13:10:53.198Z,2.17
2023-05-12T13:13:20.001Z,2.10
2023-05-12T13:15:46.653Z,2.28
2023-05-12T13:18:13.462Z,2.63
2023-05-12T13:20:40.304Z,2.25
2023-05-12T13:23:06.878Z,2.20
2023-05-12T13:25:33.603Z,2.00
2023-05-12T13:28:00.242Z,2.08
2023-05-12T13:30:26.877Z,2.13
2023-05-12T13:32:53.542Z,2.42
2023-05-12T13:35:20.581Z,2.53
2023-05-12T13:37:47.469Z,2.50
2023-05-12T13:40:14.132Z,2.38
2023-05-12T13:42:40.915Z,3.03
2023-05-12T13:45:09.178Z,2.60
2023-05-12T13:47:35.826Z,2.20
2023-05-12T13:50:02.496Z,2.75
2023-05-12T13:52:29.086Z,2.72
2023-05-12T13:54:55.627Z,2.83
2023-05-12T13:57:22.186Z,2.92
2023-05-12T13:59:50.259Z,2.28
2023-05-12T14:02:17.165Z,3.47
2023-05-12T14:04:43.809Z,3.30
2023-05-12T14:07:10.460Z,3.15
2023-05-12T14:09:37.067Z,3.30
2023-05-12T14:12:04.192Z,2.58
2023-05-12T14:14:30.953Z,3.80
2023-05-12T14:16:57.566Z,2.53
2023-05-12T14:19:24.137Z,2.88
2023-05-12T14:21:50.741Z,2.92
2023-05-12T14:24:17.720Z,3.00
2023-05-12T14:26:44.375Z,2.90
2023-05-12T14:29:10.970Z,2.78
2023-05-12T14:31:37.558Z,2.67
2023-05-12T14:34:04.524Z,2.70
2023-05-12T14:36:31.990Z,2.50
2023-05-12T14:38:58.640Z,2.78
2023-05-12T14:41:25.627Z,2.25
2023-05-12T14:43:52.196Z,2.83
2023-05-12T14:46:18.793Z,3.00
2023-05-12T14:48:45.406Z,2.95
2023-05-12T14:51:11.949Z,3.38
2023-05-12T14:53:38.498Z,3.08
2023-05-12T14:56:05.283Z,2.53
2023-05-12T14:58:31.911Z,2.67
2023-05-12T15:00:59.190Z,2.25
2023-05-12T15:03:25.997Z,2.30
2023-05-12T15:06:05.640Z,2.90
2023-05-12T15:08:33.881Z,2.70
2023-05-12T15:11:00.509Z,2.72
2023-05-12T15:13:27.130Z,2.60
2023-05-12T15:15:55.374Z,2.67
2023-05-12T15:18:23.644Z,2.70
2023-05-12T15:20:50.361Z,3.03
2023-05-12T15:23:16.996Z,2.40
2023-05-12T15:25:43.600Z,3.17
2023-05-12T15:28:10.212Z,4.05
2023-05-12T15:30:36.918Z,3.22
2023-05-12T15:33:04.084Z,2.70
2023-05-12T15:35:30.771Z,2.80
2023-05-12T15:37:57.362Z,2.92
2023-05-12T15:40:24.045Z,2.60
2023-05-12T15:42:50.681Z,2.60
2023-05-12T15:45:17.424Z,2.92
2023-05-12T15:47:44.219Z,3.20
2023-05-12T15:50:11.050Z,2.70
2023-05-12T15:52:37.841Z,3.05
2023-05-12T15:55:04.877Z,2.97
2023-05-12T15:57:31.429Z,3.10
2023-05-12T15:59:59.263Z,3.00
2023-05-12T16:02:26.120Z,2.90
2023-05-12T16:04:52.732Z,2.95
2023-05-12T16:07:19.511Z,3.10
2023-05-12T16:09:46.097Z,2.80
2023-05-12T16:12:12.806Z,2.67
2023-05-12T16:14:39.371Z,2.80
2023-05-12T16:17:06.000Z,2.42
2023-05-12T16:19:32.585Z,1.98
2023-05-12T16:21:59.891Z,2.10
2023-05-12T16:24:29.693Z,2.28
2023-05-12T16:26:57.234Z,2.05
2023-05-12T16:29:24.599Z,2.30
2023-05-12T16:31:51.874Z,2.45
2023-05-12T16:34:19.177Z,2.40
2023-05-12T16:36:45.934Z,2.10
2023-05-12T16:39:12.815Z,2.35
2023-05-12T16:41:39.536Z,2.28
2023-05-12T16:44:06.306Z,2.28
2023-05-12T16:46:33.369Z,2.03
2023-05-12T16:48:59.988Z,2.15
2023-05-12T16:51:30.420Z,2.08
2023-05-12T16:53:57.709Z,1.85
2023-05-12T16:56:25.957Z,1.95
2023-05-12T16:58:52.728Z,1.60
2023-05-12T17:01:19.945Z,1.65
2023-05-12T17:03:46.885Z,1.95
2023-05-12T17:06:13.583Z,1.77
2023-05-12T17:08:40.709Z,1.98
2023-05-12T17:11:08.018Z,1.73
2023-05-12T17:13:38.199Z,1.70
2023-05-12T17:16:05.081Z,2.05
2023-05-12T17:18:31.759Z,2.17
2023-05-12T17:20:58.789Z,2.00
2023-05-12T17:23:26.632Z,1.80
2023-05-12T17:25:53.418Z,1.70
2023-05-12T17:28:20.932Z,1.80
2023-05-12T17:30:47.920Z,2.05
2023-05-12T17:33:15.361Z,1.80
2023-05-12T17:35:42.114Z,2.30
2023-05-12T17:38:08.749Z,2.70
2023-05-12T17:40:35.354Z,2.35
2023-05-12T17:43:02.253Z,2.80
2023-05-12T17:45:28.905Z,2.13
2023-05-12T17:47:55.652Z,2.72
2023-05-12T17:50:22.289Z,2.60
2023-05-12T17:52:48.952Z,2.40
2023-05-12T17:55:16.067Z,2.88
2023-05-12T17:57:42.677Z,2.65
2023-05-12T18:00:10.318Z,2.60
2023-05-12T18:02:43.557Z,2.47
2023-05-12T18:05:10.556Z,2.83
2023-05-12T18:07:37.187Z,2.38
2023-05-12T18:10:07.546Z,2.60
2023-05-12T18:12:34.482Z,2.83
2023-05-12T18:15:01.332Z,3.10
2023-05-12T18:17:28.037Z,2.97
2023-05-12T18:19:54.790Z,2.50
2023-05-12T18:22:21.429Z,3.03
2023-05-12T18:24:48.141Z,2.92
2023-05-12T18:27:14.728Z,2.88
2023-05-12T18:29:41.295Z,2.58
2023-05-12T18:32:08.060Z,2.97
2023-05-12T18:34:34.957Z,3.10
2023-05-12T18:37:01.862Z,2.58
2023-05-12T18:39:28.403Z,2.88
2023-05-12T18:41:55.243Z,2.95
2023-05-12T18:44:21.996Z,3.17
2023-05-12T18:46:48.737Z,2.90
2023-05-12T18:49:15.426Z,3.17
2023-05-12T18:51:42.020Z,3.90
2023-05-12T18:54:08.613Z,3.65
2023-05-12T18:56:35.251Z,3.38
2023-05-12T18:59:01.842Z,3.78
2023-05-12T19:01:28.492Z,3.38
2023-05-12T19:03:55.145Z,3.63
2023-05-12T19:06:23.985Z,3.05
2023-05-12T19:08:50.594Z,3.10
2023-05-12T19:11:17.353Z,3.40
2023-05-12T19:13:45.233Z,3.30
2023-05-12T19:16:12.031Z,3.22
2023-05-12T19:18:38.753Z,3.83
2023-05-12T19:21:05.459Z,3.60
2023-05-12T19:23:32.132Z,3.67
2023-05-12T19:25:58.912Z,3.50
2023-05-12T19:28:25.643Z,3.70
2023-05-12T19:30:54.718Z,3.65
2023-05-12T19:33:21.833Z,3.97
2023-05-12T19:35:48.492Z,3.45
2023-05-12T19:38:15.170Z,3.70
2023-05-12T19:40:41.718Z,3.40
2023-05-12T19:43:10.420Z,3.17
2023-05-12T19:45:37.077Z,3.53
2023-05-12T19:48:03.981Z,2.90
2023-05-12T19:50:30.961Z,3.38
2023-05-12T19:52:57.585Z,3.25
2023-05-12T19:55:24.445Z,3.10
2023-05-12T19:57:51.789Z,3.60
2023-05-12T20:00:19.371Z,3.28
2023-05-12T20:02:46.055Z,3.40
2023-05-12T20:05:13.750Z,3.30
2023-05-12T20:07:40.393Z,3.05
2023-05-12T20:10:07.888Z,3.35
2023-05-12T20:12:35.840Z,3.92
2023-05-12T20:15:02.447Z,3.13
2023-05-12T20:17:29.073Z,3.10
2023-05-12T20:19:58.063Z,3.90
2023-05-12T20:22:24.696Z,3.25
2023-05-12T20:24:52.248Z,3.50
2023-05-12T20:27:18.815Z,3.28
2023-05-12T20:29:45.406Z,3.65
2023-05-12T20:32:14.160Z,3.28
2023-05-12T20:34:41.008Z,3.22
2023-05-12T20:37:07.758Z,3.53
2023-05-12T20:39:34.307Z,3.67
2023-05-12T20:42:00.910Z,3.55
2023-05-12T20:44:27.746Z,3.38
2023-05-12T20:46:54.543Z,3.75
2023-05-12T20:49:21.315Z,3.85
2023-05-12T20:51:47.950Z,3.17
2023-05-12T20:54:14.868Z,3.67
2023-05-12T20:56:43.998Z,3.70
2023-05-12T20:59:10.577Z,3.50
2023-05-12T21:01:37.279Z,3.67
2023-05-12T21:04:06.559Z,3.47
2023-05-12T21:06:35.029Z,4.13
2023-05-12T21:09:01.739Z,3.50
2023-05-12T21:11:28.309Z,3.55
2023-05-12T21:13:54.916Z,3.45
2023-05-12T21:16:21.686Z,3.40
2023-05-12T21:18:48.352Z,4.38
2023-05-12T21:21:15.062Z,4.10
2023-05-12T21:23:41.729Z,3.95
2023-05-12T21:26:10.223Z,3.55
2023-05-12T21:28:37.119Z,3.35
2023-05-12T21:31:03.737Z,4.15
2023-05-12T21:33:30.327Z,3.50
2023-05-12T21:35:59.534Z,3.90
2023-05-12T21:38:26.110Z,4.00
2023-05-12T21:40:54.730Z,4.03
2023-05-12T21:43:21.476Z,3.72
2023-05-12T21:45:50.985Z,3.15
2023-05-12T21:48:18.012Z,3.72
2023-05-12T21:50:44.708Z,3.97
2023-05-12T21:53:13.742Z,3.40
2023-05-12T21:55:40.959Z,3.70
2023-05-12T21:58:09.622Z,4.00
2023-05-12T22:00:38.414Z,3.72
2023-05-12T22:03:05.890Z,4.05
2023-05-12T22:05:37.776Z,4.75
2023-05-12T22:08:12.711Z,4.43
2023-05-12T22:10:39.278Z,4.38
2023-05-12T22:13:05.889Z,4.57
2023-05-12T22:15:35.728Z,5.00
2023-05-12T22:18:02.494Z,4.43
2023-05-12T22:20:29.478Z,5.15
2023-05-12T22:22:59.160Z,4.05
2023-05-12T22:25:25.880Z,4.25
2023-05-12T22:27:52.433Z,4.30
2023-05-12T22:30:21.429Z,4.53
2023-05-12T22:32:55.824Z,4.30
2023-05-12T22:35:25.167Z,3.95
2023-05-12T22:37:53.977Z,4.38
2023-05-12T22:40:22.017Z,4.30
2023-05-12T22:42:52.143Z,4.53
2023-05-12T22:45:20.321Z,4.50
2023-05-12T22:47:47.344Z,4.43
2023-05-12T22:50:32.518Z,4.53
2023-05-12T22:52:59.221Z,4.70
2023-05-12T22:55:29.077Z,4.32
2023-05-12T22:57:56.585Z,5.15
2023-05-12T23:00:23.461Z,4.45
2023-05-12T23:02:50.519Z,4.93
2023-05-12T23:05:19.573Z,4.55
2023-05-12T23:07:53.669Z,4.03
2023-05-12T23:10:22.408Z,3.70
2023-05-12T23:12:51.280Z,4.07
2023-05-12T23:15:18.166Z,4.30
2023-05-12T23:17:47.672Z,4.10
2023-05-12T23:20:18.308Z,4.35
2023-05-12T23:22:44.919Z,4.40
2023-05-12T23:25:12.480Z,4.72
2023-05-12T23:27:39.069Z,6.32
2023-05-12T23:30:10.310Z,5.57
2023-05-12T23:32:42.414Z,5.35
2023-05-12T23:35:11.446Z,4.65
2023-05-12T23:37:37.973Z,4.70
2023-05-12T23:40:08.456Z,5.13
2023-05-12T23:42:38.013Z,4.88
2023-05-12T23:45:05.334Z,5.05
2023-05-12T23:47:32.000Z,4.82
2023-05-12T23:49:58.686Z,5.50
2023-05-12T23:52:25.215Z,6.20
2023-05-12T23:54:53.739Z,5.97
2023-05-12T23:57:22.748Z,6.30
2023-05-12T23:59:55.255Z,6.03
